sensor_id;sensor_type;location;lat;lon;timestamp;temperature;humidity
31675;DHT22;18276;45.520;11.018;2023-02-26T00:01:26;10.70;84.90
31675;DHT22;18276;45.520;11.018;2023-02-26T00:03:55;10.70;84.90
31675;DHT22;18276;45.520;11.018;2023-02-26T00:06:24;10.70;85.00
31675;DHT22;18276;45.520;11.018;2023-02-26T00:08:53;10.70;85.00
31675;DHT22;18276;45.520;11.018;2023-02-26T00:11:20;10.80;85.00
31675;DHT22;18276;45.520;11.018;2023-02-26T00:13:48;10.90;84.90
31675;DHT22;18276;45.520;11.018;2023-02-26T00:18:58;11.00;84.80
31675;DHT22;18276;45.520;11.018;2023-02-26T00:21:27;11.00;84.90
31675;DHT22;18276;45.520;11.018;2023-02-26T00:23:55;11.00;84.60
31675;DHT22;18276;45.520;11.018;2023-02-26T00:26:24;11.00;84.60
31675;DHT22;18276;45.520;11.018;2023-02-26T00:28:52;11.00;84.60
31675;DHT22;18276;45.520;11.018;2023-02-26T00:31:20;11.10;84.60
31675;DHT22;18276;45.520;11.018;2023-02-26T00:33:52;11.00;84.40
31675;DHT22;18276;45.520;11.018;2023-02-26T00:36:49;11.10;84.60
31675;DHT22;18276;45.520;11.018;2023-02-26T00:39:55;11.10;84.70
31675;DHT22;18276;45.520;11.018;2023-02-26T00:42:25;11.20;84.80
31675;DHT22;18276;45.520;11.018;2023-02-26T00:44:53;11.20;84.70
31675;DHT22;18276;45.520;11.018;2023-02-26T00:47:32;11.20;84.70
31675;DHT22;18276;45.520;11.018;2023-02-26T00:50:16;11.30;84.60
31675;DHT22;18276;45.520;11.018;2023-02-26T00:53:09;11.30;84.40
31675;DHT22;18276;45.520;11.018;2023-02-26T00:55:38;11.30;84.20
31675;DHT22;18276;45.520;11.018;2023-02-26T00:58:05;11.30;84.10
31675;DHT22;18276;45.520;11.018;2023-02-26T01:00:32;11.30;84.20
31675;DHT22;18276;45.520;11.018;2023-02-26T01:02:59;11.30;84.40
31675;DHT22;18276;45.520;11.018;2023-02-26T01:05:27;11.30;84.40
31675;DHT22;18276;45.520;11.018;2023-02-26T01:10:30;11.40;84.60
31675;DHT22;18276;45.520;11.018;2023-02-26T01:12:58;11.30;84.60
31675;DHT22;18276;45.520;11.018;2023-02-26T01:15:25;11.40;84.60
31675;DHT22;18276;45.520;11.018;2023-02-26T01:20:25;11.40;84.50
31675;DHT22;18276;45.520;11.018;2023-02-26T01:23:08;11.40;84.30
31675;DHT22;18276;45.520;11.018;2023-02-26T01:25:40;11.40;84.00
31675;DHT22;18276;45.520;11.018;2023-02-26T01:28:09;11.40;83.90
31675;DHT22;18276;45.520;11.018;2023-02-26T01:30:36;11.50;83.70
31675;DHT22;18276;45.520;11.018;2023-02-26T01:33:26;11.40;83.50
31675;DHT22;18276;45.520;11.018;2023-02-26T01:36:00;11.50;83.50
31675;DHT22;18276;45.520;11.018;2023-02-26T01:38:47;11.50;83.50
31675;DHT22;18276;45.520;11.018;2023-02-26T01:41:25;11.50;83.50
31675;DHT22;18276;45.520;11.018;2023-02-26T01:44:24;11.50;83.30
31675;DHT22;18276;45.520;11.018;2023-02-26T01:49:44;11.50;83.50
31675;DHT22;18276;45.520;11.018;2023-02-26T01:55:23;11.60;83.40
31675;DHT22;18276;45.520;11.018;2023-02-26T01:57:53;11.50;83.30
31675;DHT22;18276;45.520;11.018;2023-02-26T02:00:22;11.50;83.50
31675;DHT22;18276;45.520;11.018;2023-02-26T02:02:52;11.50;83.40
31675;DHT22;18276;45.520;11.018;2023-02-26T02:05:44;11.50;83.30
31675;DHT22;18276;45.520;11.018;2023-02-26T02:08:12;11.50;83.40
31675;DHT22;18276;45.520;11.018;2023-02-26T02:10:46;11.60;83.50
31675;DHT22;18276;45.520;11.018;2023-02-26T02:32:51;11.70;82.00
31675;DHT22;18276;45.520;11.018;2023-02-26T02:35:25;11.70;81.80
31675;DHT22;18276;45.520;11.018;2023-02-26T02:40:34;11.40;81.60
31675;DHT22;18276;45.520;11.018;2023-02-26T02:43:27;11.30;81.60
31675;DHT22;18276;45.520;11.018;2023-02-26T02:46:06;11.00;81.60
31675;DHT22;18276;45.520;11.018;2023-02-26T02:48:59;10.80;80.50
31675;DHT22;18276;45.520;11.018;2023-02-26T02:54:07;10.40;79.40
31675;DHT22;18276;45.520;11.018;2023-02-26T02:56:46;10.20;79.10
31675;DHT22;18276;45.520;11.018;2023-02-26T02:59:41;10.00;79.60
31675;DHT22;18276;45.520;11.018;2023-02-26T03:02:16;9.90;79.40
31675;DHT22;18276;45.520;11.018;2023-02-26T03:04:45;9.80;79.30
31675;DHT22;18276;45.520;11.018;2023-02-26T03:07:12;9.70;79.00
31675;DHT22;18276;45.520;11.018;2023-02-26T03:09:40;9.60;78.80
31675;DHT22;18276;45.520;11.018;2023-02-26T03:12:11;9.50;78.60
31675;DHT22;18276;45.520;11.018;2023-02-26T03:14:38;9.40;77.50
31675;DHT22;18276;45.520;11.018;2023-02-26T03:17:21;9.30;77.70
31675;DHT22;18276;45.520;11.018;2023-02-26T03:23:16;9.20;76.60
31675;DHT22;18276;45.520;11.018;2023-02-26T03:25:57;9.10;75.90
31675;DHT22;18276;45.520;11.018;2023-02-26T03:28:47;9.00;76.40
31675;DHT22;18276;45.520;11.018;2023-02-26T03:31:20;8.90;76.00
31675;DHT22;18276;45.520;11.018;2023-02-26T03:33:53;8.90;75.70
31675;DHT22;18276;45.520;11.018;2023-02-26T03:39:18;8.70;75.70
31675;DHT22;18276;45.520;11.018;2023-02-26T03:42:03;8.70;77.10
31675;DHT22;18276;45.520;11.018;2023-02-26T03:44:52;8.60;75.90
31675;DHT22;18276;45.520;11.018;2023-02-26T03:47:21;8.60;75.50
31675;DHT22;18276;45.520;11.018;2023-02-26T03:52:34;8.50;75.10
31675;DHT22;18276;45.520;11.018;2023-02-26T03:55:37;8.40;75.20
31675;DHT22;18276;45.520;11.018;2023-02-26T03:58:45;8.30;75.10
31675;DHT22;18276;45.520;11.018;2023-02-26T04:04:37;8.30;74.80
31675;DHT22;18276;45.520;11.018;2023-02-26T04:07:10;8.20;74.80
31675;DHT22;18276;45.520;11.018;2023-02-26T04:09:43;8.20;74.90
31675;DHT22;18276;45.520;11.018;2023-02-26T04:12:10;8.10;75.10
31675;DHT22;18276;45.520;11.018;2023-02-26T04:14:41;8.10;75.60
31675;DHT22;18276;45.520;11.018;2023-02-26T04:17:08;8.10;75.80
31675;DHT22;18276;45.520;11.018;2023-02-26T04:19:35;8.00;76.10
31675;DHT22;18276;45.520;11.018;2023-02-26T04:22:02;8.00;76.50
31675;DHT22;18276;45.520;11.018;2023-02-26T04:24:29;8.00;76.90
31675;DHT22;18276;45.520;11.018;2023-02-26T04:26:59;8.00;77.10
31675;DHT22;18276;45.520;11.018;2023-02-26T04:29:27;8.00;78.20
31675;DHT22;18276;45.520;11.018;2023-02-26T04:31:56;7.90;77.70
31675;DHT22;18276;45.520;11.018;2023-02-26T04:34:23;7.90;77.90
31675;DHT22;18276;45.520;11.018;2023-02-26T04:36:51;7.90;77.90
31675;DHT22;18276;45.520;11.018;2023-02-26T04:39:18;7.90;78.30
31675;DHT22;18276;45.520;11.018;2023-02-26T04:41:45;7.90;78.40
31675;DHT22;18276;45.520;11.018;2023-02-26T04:44:13;7.80;78.70
31675;DHT22;18276;45.520;11.018;2023-02-26T04:46:41;7.80;78.90
31675;DHT22;18276;45.520;11.018;2023-02-26T04:49:09;7.80;78.90
31675;DHT22;18276;45.520;11.018;2023-02-26T04:51:38;7.80;79.20
31675;DHT22;18276;45.520;11.018;2023-02-26T04:54:07;7.80;79.30
31675;DHT22;18276;45.520;11.018;2023-02-26T04:56:34;7.80;79.10
31675;DHT22;18276;45.520;11.018;2023-02-26T04:59:03;7.80;79.10
31675;DHT22;18276;45.520;11.018;2023-02-26T05:01:30;7.70;79.00
31675;DHT22;18276;45.520;11.018;2023-02-26T05:03:58;7.80;79.10
31675;DHT22;18276;45.520;11.018;2023-02-26T05:06:25;7.70;79.00
31675;DHT22;18276;45.520;11.018;2023-02-26T05:08:53;7.70;79.10
31675;DHT22;18276;45.520;11.018;2023-02-26T05:11:21;7.70;79.10
31675;DHT22;18276;45.520;11.018;2023-02-26T05:13:47;7.60;79.20
31675;DHT22;18276;45.520;11.018;2023-02-26T05:16:16;7.60;79.40
31675;DHT22;18276;45.520;11.018;2023-02-26T05:18:43;7.50;79.40
31675;DHT22;18276;45.520;11.018;2023-02-26T05:21:10;7.50;79.70
31675;DHT22;18276;45.520;11.018;2023-02-26T05:23:38;7.40;79.90
31675;DHT22;18276;45.520;11.018;2023-02-26T05:26:05;7.50;80.20
31675;DHT22;18276;45.520;11.018;2023-02-26T05:28:32;7.50;80.10
31675;DHT22;18276;45.520;11.018;2023-02-26T05:30:59;7.50;80.00
31675;DHT22;18276;45.520;11.018;2023-02-26T05:33:27;7.60;80.10
31675;DHT22;18276;45.520;11.018;2023-02-26T05:35:54;7.60;79.90
31675;DHT22;18276;45.520;11.018;2023-02-26T05:38:21;7.60;79.90
31675;DHT22;18276;45.520;11.018;2023-02-26T05:40:48;7.60;79.90
31675;DHT22;18276;45.520;11.018;2023-02-26T05:43:15;7.60;80.00
31675;DHT22;18276;45.520;11.018;2023-02-26T05:45:42;7.60;80.10
31675;DHT22;18276;45.520;11.018;2023-02-26T05:48:09;7.60;80.00
31675;DHT22;18276;45.520;11.018;2023-02-26T05:50:36;7.60;80.20
31675;DHT22;18276;45.520;11.018;2023-02-26T05:53:03;7.60;80.10
31675;DHT22;18276;45.520;11.018;2023-02-26T05:55:31;7.60;80.20
31675;DHT22;18276;45.520;11.018;2023-02-26T05:57:58;7.60;80.40
31675;DHT22;18276;45.520;11.018;2023-02-26T06:00:25;7.60;80.20
31675;DHT22;18276;45.520;11.018;2023-02-26T06:02:52;7.60;80.20
31675;DHT22;18276;45.520;11.018;2023-02-26T06:05:19;7.60;80.30
31675;DHT22;18276;45.520;11.018;2023-02-26T06:07:47;7.60;80.30
31675;DHT22;18276;45.520;11.018;2023-02-26T06:10:14;7.70;80.40
31675;DHT22;18276;45.520;11.018;2023-02-26T06:12:41;7.70;80.30
31675;DHT22;18276;45.520;11.018;2023-02-26T06:15:09;7.70;80.10
31675;DHT22;18276;45.520;11.018;2023-02-26T06:17:38;7.70;79.80
31675;DHT22;18276;45.520;11.018;2023-02-26T06:20:07;7.70;80.10
31675;DHT22;18276;45.520;11.018;2023-02-26T06:22:34;7.60;80.40
31675;DHT22;18276;45.520;11.018;2023-02-26T06:25:01;7.60;80.60
31675;DHT22;18276;45.520;11.018;2023-02-26T06:27:28;7.60;80.70
31675;DHT22;18276;45.520;11.018;2023-02-26T06:29:55;7.60;80.80
31675;DHT22;18276;45.520;11.018;2023-02-26T06:32:22;7.60;81.10
31675;DHT22;18276;45.520;11.018;2023-02-26T06:34:49;7.50;81.20
31675;DHT22;18276;45.520;11.018;2023-02-26T06:37:17;7.50;81.40
31675;DHT22;18276;45.520;11.018;2023-02-26T06:39:44;7.50;81.60
31675;DHT22;18276;45.520;11.018;2023-02-26T06:42:11;7.50;81.70
31675;DHT22;18276;45.520;11.018;2023-02-26T06:44:38;7.40;81.70
31675;DHT22;18276;45.520;11.018;2023-02-26T06:47:05;7.30;81.80
31675;DHT22;18276;45.520;11.018;2023-02-26T06:49:33;7.20;81.90
31675;DHT22;18276;45.520;11.018;2023-02-26T06:52:00;7.30;82.20
31675;DHT22;18276;45.520;11.018;2023-02-26T06:54:27;7.20;82.20
31675;DHT22;18276;45.520;11.018;2023-02-26T06:56:54;7.10;82.30
31675;DHT22;18276;45.520;11.018;2023-02-26T06:59:23;7.10;82.80
31675;DHT22;18276;45.520;11.018;2023-02-26T07:01:50;7.00;83.10
31675;DHT22;18276;45.520;11.018;2023-02-26T07:04:17;7.00;83.30
31675;DHT22;18276;45.520;11.018;2023-02-26T07:06:46;7.00;83.50
31675;DHT22;18276;45.520;11.018;2023-02-26T07:09:13;6.90;83.60
31675;DHT22;18276;45.520;11.018;2023-02-26T07:11:40;6.90;83.90
31675;DHT22;18276;45.520;11.018;2023-02-26T07:14:07;6.90;84.10
31675;DHT22;18276;45.520;11.018;2023-02-26T07:16:34;6.90;84.10
31675;DHT22;18276;45.520;11.018;2023-02-26T07:19:01;7.00;84.00
31675;DHT22;18276;45.520;11.018;2023-02-26T07:21:28;7.00;83.80
31675;DHT22;18276;45.520;11.018;2023-02-26T07:23:55;7.10;83.60
31675;DHT22;18276;45.520;11.018;2023-02-26T07:26:22;7.20;83.40
31675;DHT22;18276;45.520;11.018;2023-02-26T07:28:50;7.20;83.30
31675;DHT22;18276;45.520;11.018;2023-02-26T07:31:17;7.20;82.80
31675;DHT22;18276;45.520;11.018;2023-02-26T07:33:44;7.20;82.30
31675;DHT22;18276;45.520;11.018;2023-02-26T07:36:11;7.20;81.80
31675;DHT22;18276;45.520;11.018;2023-02-26T07:38:38;7.10;81.40
31675;DHT22;18276;45.520;11.018;2023-02-26T07:41:05;7.00;81.50
31675;DHT22;18276;45.520;11.018;2023-02-26T07:43:32;7.00;81.80
31675;DHT22;18276;45.520;11.018;2023-02-26T07:45:59;7.10;81.80
31675;DHT22;18276;45.520;11.018;2023-02-26T07:48:26;7.20;81.60
31675;DHT22;18276;45.520;11.018;2023-02-26T07:50:53;7.20;81.00
31675;DHT22;18276;45.520;11.018;2023-02-26T07:53:20;7.30;80.50
31675;DHT22;18276;45.520;11.018;2023-02-26T07:55:47;7.30;80.40
31675;DHT22;18276;45.520;11.018;2023-02-26T07:58:15;7.40;80.40
31675;DHT22;18276;45.520;11.018;2023-02-26T08:00:42;7.40;79.70
31675;DHT22;18276;45.520;11.018;2023-02-26T08:03:09;7.50;79.50
31675;DHT22;18276;45.520;11.018;2023-02-26T08:05:37;7.50;79.10
31675;DHT22;18276;45.520;11.018;2023-02-26T08:08:04;7.60;78.70
31675;DHT22;18276;45.520;11.018;2023-02-26T08:10:31;7.70;78.40
31675;DHT22;18276;45.520;11.018;2023-02-26T08:12:58;7.80;78.00
31675;DHT22;18276;45.520;11.018;2023-02-26T08:15:26;7.70;76.80
31675;DHT22;18276;45.520;11.018;2023-02-26T08:17:53;7.80;77.00
31675;DHT22;18276;45.520;11.018;2023-02-26T08:20:20;7.80;76.70
31675;DHT22;18276;45.520;11.018;2023-02-26T08:22:48;7.90;76.30
31675;DHT22;18276;45.520;11.018;2023-02-26T08:25:16;7.90;76.20
31675;DHT22;18276;45.520;11.018;2023-02-26T08:27:43;7.90;75.60
31675;DHT22;18276;45.520;11.018;2023-02-26T08:30:11;7.90;75.30
31675;DHT22;18276;45.520;11.018;2023-02-26T08:32:38;7.90;74.00
31675;DHT22;18276;45.520;11.018;2023-02-26T08:35:08;7.80;74.60
31675;DHT22;18276;45.520;11.018;2023-02-26T08:37:36;7.80;74.70
31675;DHT22;18276;45.520;11.018;2023-02-26T08:40:04;7.80;74.80
31675;DHT22;18276;45.520;11.018;2023-02-26T08:42:31;7.70;75.20
31675;DHT22;18276;45.520;11.018;2023-02-26T08:44:58;7.70;75.40
31675;DHT22;18276;45.520;11.018;2023-02-26T08:47:25;7.80;75.50
31675;DHT22;18276;45.520;11.018;2023-02-26T08:49:55;7.80;75.50
31675;DHT22;18276;45.520;11.018;2023-02-26T08:52:22;7.80;75.10
31675;DHT22;18276;45.520;11.018;2023-02-26T08:54:49;7.90;74.50
31675;DHT22;18276;45.520;11.018;2023-02-26T08:57:16;7.90;73.80
31675;DHT22;18276;45.520;11.018;2023-02-26T08:59:43;7.90;73.80
31675;DHT22;18276;45.520;11.018;2023-02-26T09:02:11;7.90;73.50
31675;DHT22;18276;45.520;11.018;2023-02-26T09:04:38;7.90;73.30
31675;DHT22;18276;45.520;11.018;2023-02-26T09:07:06;7.90;73.20
31675;DHT22;18276;45.520;11.018;2023-02-26T09:09:33;7.90;73.30
31675;DHT22;18276;45.520;11.018;2023-02-26T09:12:00;8.00;73.40
31675;DHT22;18276;45.520;11.018;2023-02-26T09:14:27;8.00;73.10
31675;DHT22;18276;45.520;11.018;2023-02-26T09:16:54;8.00;72.50
31675;DHT22;18276;45.520;11.018;2023-02-26T09:19:22;8.10;72.30
31675;DHT22;18276;45.520;11.018;2023-02-26T09:21:49;8.10;71.20
31675;DHT22;18276;45.520;11.018;2023-02-26T09:24:16;8.10;70.70
31675;DHT22;18276;45.520;11.018;2023-02-26T09:26:43;8.00;70.00
31675;DHT22;18276;45.520;11.018;2023-02-26T09:29:10;8.10;70.50
31675;DHT22;18276;45.520;11.018;2023-02-26T09:31:39;8.20;70.80
31675;DHT22;18276;45.520;11.018;2023-02-26T09:34:06;8.30;70.50
31675;DHT22;18276;45.520;11.018;2023-02-26T09:36:35;8.40;70.00
31675;DHT22;18276;45.520;11.018;2023-02-26T09:39:03;8.60;70.00
31675;DHT22;18276;45.520;11.018;2023-02-26T09:41:43;8.70;69.40
31675;DHT22;18276;45.520;11.018;2023-02-26T09:44:29;8.80;68.50
31675;DHT22;18276;45.520;11.018;2023-02-26T09:47:24;8.90;68.00
31675;DHT22;18276;45.520;11.018;2023-02-26T09:52:44;9.00;68.10
31675;DHT22;18276;45.520;11.018;2023-02-26T09:55:18;9.10;67.80
31675;DHT22;18276;45.520;11.018;2023-02-26T09:57:53;9.20;67.20
31675;DHT22;18276;45.520;11.018;2023-02-26T10:00:28;9.30;66.60
31675;DHT22;18276;45.520;11.018;2023-02-26T10:06:20;9.50;65.80
31675;DHT22;18276;45.520;11.018;2023-02-26T10:11:56;9.90;64.60
31675;DHT22;18276;45.520;11.018;2023-02-26T10:14:43;9.90;63.50
31675;DHT22;18276;45.520;11.018;2023-02-26T10:17:37;10.00;63.30
31675;DHT22;18276;45.520;11.018;2023-02-26T10:23:43;10.30;61.10
31675;DHT22;18276;45.520;11.018;2023-02-26T10:26:03;10.30;60.90
31675;DHT22;18276;45.520;11.018;2023-02-26T10:36:27;11.10;58.60
31675;DHT22;18276;45.520;11.018;2023-02-26T10:39:01;11.30;57.80
31675;DHT22;18276;45.520;11.018;2023-02-26T10:41:36;11.40;57.10
31675;DHT22;18276;45.520;11.018;2023-02-26T10:44:36;11.50;55.90
31675;DHT22;18276;45.520;11.018;2023-02-26T10:52:13;11.80;53.10
31675;DHT22;18276;45.520;11.018;2023-02-26T10:57:41;11.80;51.10
31675;DHT22;18276;45.520;11.018;2023-02-26T11:00:16;11.70;51.10
31675;DHT22;18276;45.520;11.018;2023-02-26T11:02:47;11.60;51.90
31675;DHT22;18276;45.520;11.018;2023-02-26T11:05:28;11.60;51.70
31675;DHT22;18276;45.520;11.018;2023-02-26T11:08:08;11.50;51.60
31675;DHT22;18276;45.520;11.018;2023-02-26T11:13:10;11.50;53.10
31675;DHT22;18276;45.520;11.018;2023-02-26T11:15:38;11.50;52.10
31675;DHT22;18276;45.520;11.018;2023-02-26T11:18:15;11.30;51.80
31675;DHT22;18276;45.520;11.018;2023-02-26T11:20:45;11.20;52.50
31675;DHT22;18276;45.520;11.018;2023-02-26T11:23:16;11.20;52.50
31675;DHT22;18276;45.520;11.018;2023-02-26T11:25:44;11.20;52.70
31675;DHT22;18276;45.520;11.018;2023-02-26T11:28:30;11.30;53.30
31675;DHT22;18276;45.520;11.018;2023-02-26T11:31:01;11.50;53.20
31675;DHT22;18276;45.520;11.018;2023-02-26T11:33:39;11.60;53.20
31675;DHT22;18276;45.520;11.018;2023-02-26T11:36:14;11.60;52.40
31675;DHT22;18276;45.520;11.018;2023-02-26T11:38:44;11.50;52.30
31675;DHT22;18276;45.520;11.018;2023-02-26T11:41:13;11.30;51.90
31675;DHT22;18276;45.520;11.018;2023-02-26T11:43:42;11.00;50.80
31675;DHT22;18276;45.520;11.018;2023-02-26T11:46:11;10.80;52.10
31675;DHT22;18276;45.520;11.018;2023-02-26T11:48:46;10.70;52.80
31675;DHT22;18276;45.520;11.018;2023-02-26T11:51:21;10.70;52.60
31675;DHT22;18276;45.520;11.018;2023-02-26T11:53:53;10.70;53.00
31675;DHT22;18276;45.520;11.018;2023-02-26T11:56:41;10.60;51.80
31675;DHT22;18276;45.520;11.018;2023-02-26T11:59:24;10.50;52.00
31675;DHT22;18276;45.520;11.018;2023-02-26T12:01:52;10.40;52.40
31675;DHT22;18276;45.520;11.018;2023-02-26T12:04:22;10.50;52.70
31675;DHT22;18276;45.520;11.018;2023-02-26T12:06:54;10.50;52.10
31675;DHT22;18276;45.520;11.018;2023-02-26T12:09:21;10.30;51.50
31675;DHT22;18276;45.520;11.018;2023-02-26T12:23:27;10.10;51.90
31675;DHT22;18276;45.520;11.018;2023-02-26T12:45:40;9.90;50.00
31675;DHT22;18276;45.520;11.018;2023-02-26T12:51:42;9.70;49.30
31675;DHT22;18276;45.520;11.018;2023-02-26T12:57:18;9.40;49.40
31675;DHT22;18276;45.520;11.018;2023-02-26T13:00:18;9.40;49.60
31675;DHT22;18276;45.520;11.018;2023-02-26T13:03:00;9.60;49.80
31675;DHT22;18276;45.520;11.018;2023-02-26T13:21:52;10.00;47.80
31675;DHT22;18276;45.520;11.018;2023-02-26T13:24:25;9.90;48.40
31675;DHT22;18276;45.520;11.018;2023-02-26T13:26:54;9.80;48.70
31675;DHT22;18276;45.520;11.018;2023-02-26T13:29:29;9.80;48.70
31675;DHT22;18276;45.520;11.018;2023-02-26T13:31:59;9.70;48.80
31675;DHT22;18276;45.520;11.018;2023-02-26T13:34:38;9.70;49.00
31675;DHT22;18276;45.520;11.018;2023-02-26T13:42:45;9.60;49.30
31675;DHT22;18276;45.520;11.018;2023-02-26T13:51:08;9.30;49.50
31675;DHT22;18276;45.520;11.018;2023-02-26T13:53:51;9.30;49.60
31675;DHT22;18276;45.520;11.018;2023-02-26T14:01:56;9.40;50.00
31675;DHT22;18276;45.520;11.018;2023-02-26T14:04:50;9.50;50.40
31675;DHT22;18276;45.520;11.018;2023-02-26T14:07:45;9.60;50.20
31675;DHT22;18276;45.520;11.018;2023-02-26T14:10:45;9.80;50.40
31675;DHT22;18276;45.520;11.018;2023-02-26T14:13:21;9.90;50.40
31675;DHT22;18276;45.520;11.018;2023-02-26T14:16:22;10.00;50.20
31675;DHT22;18276;45.520;11.018;2023-02-26T14:18:51;9.90;48.70
31675;DHT22;18276;45.520;11.018;2023-02-26T14:24:18;9.60;49.40
31675;DHT22;18276;45.520;11.018;2023-02-26T14:26:48;9.50;49.90
31675;DHT22;18276;45.520;11.018;2023-02-26T14:29:25;9.40;49.70
31675;DHT22;18276;45.520;11.018;2023-02-26T14:32:15;9.30;50.30
31675;DHT22;18276;45.520;11.018;2023-02-26T14:34:53;9.20;50.80
31675;DHT22;18276;45.520;11.018;2023-02-26T14:37:23;9.20;51.00
31675;DHT22;18276;45.520;11.018;2023-02-26T14:39:57;9.30;51.10
31675;DHT22;18276;45.520;11.018;2023-02-26T14:45:16;9.40;51.50
31675;DHT22;18276;45.520;11.018;2023-02-26T14:47:46;9.50;51.70
31675;DHT22;18276;45.520;11.018;2023-02-26T14:50:16;9.50;51.50
31675;DHT22;18276;45.520;11.018;2023-02-26T15:09:56;9.00;54.50
31675;DHT22;18276;45.520;11.018;2023-02-26T15:15:32;8.70;57.60
31675;DHT22;18276;45.520;11.018;2023-02-26T15:18:12;8.50;58.70
31675;DHT22;18276;45.520;11.018;2023-02-26T15:23:24;8.20;60.50
31675;DHT22;18276;45.520;11.018;2023-02-26T15:25:54;8.10;60.70
31675;DHT22;18276;45.520;11.018;2023-02-26T15:28:31;8.00;61.10
31675;DHT22;18276;45.520;11.018;2023-02-26T15:31:02;8.00;61.90
31675;DHT22;18276;45.520;11.018;2023-02-26T15:33:32;7.90;62.10
31675;DHT22;18276;45.520;11.018;2023-02-26T15:36:05;7.80;62.00
31675;DHT22;18276;45.520;11.018;2023-02-26T15:38:45;7.80;62.40
31675;DHT22;18276;45.520;11.018;2023-02-26T15:41:13;7.90;62.60
31675;DHT22;18276;45.520;11.018;2023-02-26T15:43:49;7.90;62.50
31675;DHT22;18276;45.520;11.018;2023-02-26T15:46:19;7.90;60.40
31675;DHT22;18276;45.520;11.018;2023-02-26T15:48:46;8.00;58.90
31675;DHT22;18276;45.520;11.018;2023-02-26T15:51:15;8.10;59.00
31675;DHT22;18276;45.520;11.018;2023-02-26T15:53:47;8.00;60.10
31675;DHT22;18276;45.520;11.018;2023-02-26T15:56:27;8.00;61.10
31675;DHT22;18276;45.520;11.018;2023-02-26T16:01:30;7.90;62.70
31675;DHT22;18276;45.520;11.018;2023-02-26T16:04:02;7.80;62.90
31675;DHT22;18276;45.520;11.018;2023-02-26T16:06:37;7.80;63.20
31675;DHT22;18276;45.520;11.018;2023-02-26T16:09:06;7.90;63.30
31675;DHT22;18276;45.520;11.018;2023-02-26T16:11:37;7.90;63.30
31675;DHT22;18276;45.520;11.018;2023-02-26T16:14:08;7.90;63.30
31675;DHT22;18276;45.520;11.018;2023-02-26T16:16:43;7.80;63.30
31675;DHT22;18276;45.520;11.018;2023-02-26T16:19:19;7.80;64.10
31675;DHT22;18276;45.520;11.018;2023-02-26T16:21:48;7.80;63.40
31675;DHT22;18276;45.520;11.018;2023-02-26T16:24:17;7.80;63.30
31675;DHT22;18276;45.520;11.018;2023-02-26T16:26:51;7.80;63.10
31675;DHT22;18276;45.520;11.018;2023-02-26T16:29:30;7.80;63.00
31675;DHT22;18276;45.520;11.018;2023-02-26T16:32:01;7.80;62.90
31675;DHT22;18276;45.520;11.018;2023-02-26T16:34:47;7.80;62.80
31675;DHT22;18276;45.520;11.018;2023-02-26T16:37:33;7.80;62.00
31675;DHT22;18276;45.520;11.018;2023-02-26T16:42:59;7.80;60.90
31675;DHT22;18276;45.520;11.018;2023-02-26T16:48:11;7.70;60.50
31675;DHT22;18276;45.520;11.018;2023-02-26T16:50:40;7.70;61.00
31675;DHT22;18276;45.520;11.018;2023-02-26T16:53:16;7.70;61.30
31675;DHT22;18276;45.520;11.018;2023-02-26T16:56:03;7.60;61.50
31675;DHT22;18276;45.520;11.018;2023-02-26T16:58:31;7.60;61.70
31675;DHT22;18276;45.520;11.018;2023-02-26T17:01:07;7.50;61.70
31675;DHT22;18276;45.520;11.018;2023-02-26T17:03:35;7.50;62.00
31675;DHT22;18276;45.520;11.018;2023-02-26T17:06:12;7.40;62.10
31675;DHT22;18276;45.520;11.018;2023-02-26T17:08:46;7.40;62.40
31675;DHT22;18276;45.520;11.018;2023-02-26T17:11:27;7.40;62.70
31675;DHT22;18276;45.520;11.018;2023-02-26T17:14:20;7.30;62.60
31675;DHT22;18276;45.520;11.018;2023-02-26T17:16:57;7.30;62.80
31675;DHT22;18276;45.520;11.018;2023-02-26T17:19:24;7.30;62.60
31675;DHT22;18276;45.520;11.018;2023-02-26T17:21:53;7.30;62.50
31675;DHT22;18276;45.520;11.018;2023-02-26T17:24:31;7.30;62.40
31675;DHT22;18276;45.520;11.018;2023-02-26T17:27:01;7.30;62.60
31675;DHT22;18276;45.520;11.018;2023-02-26T17:29:40;7.30;62.80
31675;DHT22;18276;45.520;11.018;2023-02-26T17:32:22;7.30;62.80
31675;DHT22;18276;45.520;11.018;2023-02-26T17:34:50;7.40;62.80
31675;DHT22;18276;45.520;11.018;2023-02-26T17:37:18;7.40;62.80
31675;DHT22;18276;45.520;11.018;2023-02-26T17:39:45;7.40;62.50
31675;DHT22;18276;45.520;11.018;2023-02-26T17:42:15;7.40;61.90
31675;DHT22;18276;45.520;11.018;2023-02-26T17:44:42;7.40;60.80
31675;DHT22;18276;45.520;11.018;2023-02-26T17:47:15;7.30;59.90
31675;DHT22;18276;45.520;11.018;2023-02-26T17:49:43;7.30;59.40
31675;DHT22;18276;45.520;11.018;2023-02-26T17:52:10;7.30;59.60
31675;DHT22;18276;45.520;11.018;2023-02-26T17:54:37;7.30;59.90
31675;DHT22;18276;45.520;11.018;2023-02-26T17:57:05;7.30;60.00
31675;DHT22;18276;45.520;11.018;2023-02-26T17:59:33;7.30;60.10
31675;DHT22;18276;45.520;11.018;2023-02-26T18:01:59;7.30;60.40
31675;DHT22;18276;45.520;11.018;2023-02-26T18:04:27;7.30;60.30
31675;DHT22;18276;45.520;11.018;2023-02-26T18:06:55;7.30;60.40
31675;DHT22;18276;45.520;11.018;2023-02-26T18:09:22;7.30;60.80
31675;DHT22;18276;45.520;11.018;2023-02-26T18:11:49;7.30;61.10
31675;DHT22;18276;45.520;11.018;2023-02-26T18:14:16;7.30;60.40
31675;DHT22;18276;45.520;11.018;2023-02-26T18:16:43;7.20;60.20
31675;DHT22;18276;45.520;11.018;2023-02-26T18:19:13;7.20;60.30
31675;DHT22;18276;45.520;11.018;2023-02-26T18:21:41;7.20;60.20
31675;DHT22;18276;45.520;11.018;2023-02-26T18:24:08;7.20;60.10
31675;DHT22;18276;45.520;11.018;2023-02-26T18:26:35;7.20;60.40
31675;DHT22;18276;45.520;11.018;2023-02-26T18:29:02;7.10;60.20
31675;DHT22;18276;45.520;11.018;2023-02-26T18:31:29;7.10;61.60
31675;DHT22;18276;45.520;11.018;2023-02-26T18:34:01;7.00;62.30
31675;DHT22;18276;45.520;11.018;2023-02-26T18:36:34;7.00;61.90
31675;DHT22;18276;45.520;11.018;2023-02-26T18:39:06;7.00;61.30
31675;DHT22;18276;45.520;11.018;2023-02-26T18:41:33;7.00;61.60
31675;DHT22;18276;45.520;11.018;2023-02-26T18:44:00;6.90;62.60
31675;DHT22;18276;45.520;11.018;2023-02-26T18:46:27;6.90;64.00
31675;DHT22;18276;45.520;11.018;2023-02-26T18:48:55;6.80;65.90
31675;DHT22;18276;45.520;11.018;2023-02-26T18:51:22;6.70;67.00
31675;DHT22;18276;45.520;11.018;2023-02-26T18:53:50;6.50;67.60
31675;DHT22;18276;45.520;11.018;2023-02-26T18:56:17;6.50;68.50
31675;DHT22;18276;45.520;11.018;2023-02-26T18:58:44;6.40;69.40
31675;DHT22;18276;45.520;11.018;2023-02-26T19:01:11;6.40;69.80
31675;DHT22;18276;45.520;11.018;2023-02-26T19:03:38;6.40;70.20
31675;DHT22;18276;45.520;11.018;2023-02-26T19:06:05;6.30;70.30